createdAt,value
2018-07-09T00:01:00.917Z,68.61
2018-07-09T00:03:29.913Z,68.37
2018-07-09T00:05:58.855Z,67.85
2018-07-09T00:08:27.820Z,67.64
2018-07-09T00:10:59.649Z,68.40
2018-07-09T00:13:29.013Z,68.68
2018-07-09T00:15:58.147Z,69.01
2018-07-09T00:18:27.081Z,69.03
2018-07-09T00:20:56.114Z,69.07
2018-07-09T00:23:25.006Z,68.34
2018-07-09T00:25:54.627Z,68.90
2018-07-09T00:28:24.049Z,69.23
2018-07-09T00:30:52.982Z,68.45
2018-07-09T00:33:22.223Z,69.56
2018-07-09T00:35:51.178Z,69.09
2018-07-09T00:38:20.490Z,69.16
2018-07-09T00:40:49.380Z,68.72
2018-07-09T00:43:18.282Z,69.64
2018-07-09T00:45:47.193Z,69.08
2018-07-09T00:48:16.118Z,69.80
2018-07-09T00:50:45.023Z,70.16
2018-07-09T00:53:14.018Z,70.43
2018-07-09T00:55:42.932Z,69.52
2018-07-09T00:58:11.871Z,70.08
2018-07-09T01:00:40.769Z,70.70
2018-07-09T01:03:09.714Z,71.24
2018-07-09T01:05:38.600Z,71.63
2018-07-09T01:08:07.517Z,71.87
2018-07-09T01:10:46.696Z,71.65
2018-07-09T01:13:15.614Z,72.21
2018-07-09T01:15:44.537Z,71.05
2018-07-09T01:18:13.500Z,71.07
2018-07-09T01:20:42.405Z,71.07
2018-07-09T01:23:11.295Z,71.53
2018-07-09T01:25:40.208Z,71.51
2018-07-09T01:28:09.141Z,71.83
2018-07-09T01:30:38.072Z,71.26
2018-07-09T01:33:06.976Z,72.02
2018-07-09T01:35:35.954Z,72.02
2018-07-09T01:38:05.038Z,72.29
2018-07-09T01:40:33.937Z,72.72
2018-07-09T01:43:02.861Z,72.85
2018-07-09T01:45:31.783Z,72.15
2018-07-09T01:48:00.711Z,72.17
2018-07-09T01:50:29.612Z,73.12
2018-07-09T01:52:58.531Z,72.87
2018-07-09T01:55:27.434Z,73.08
2018-07-09T01:57:56.322Z,73.50
2018-07-09T02:00:25.227Z,72.86
2018-07-09T02:02:54.150Z,72.57
2018-07-09T02:05:23.044Z,73.51
2018-07-09T02:07:52.024Z,72.34
2018-07-09T02:10:20.940Z,72.02
2018-07-09T02:12:49.915Z,71.51
2018-07-09T02:15:18.867Z,71.98
2018-07-09T02:17:47.928Z,71.30
2018-07-09T02:20:16.840Z,71.76
2018-07-09T02:22:45.804Z,72.63
2018-07-09T02:25:14.684Z,70.84
2018-07-09T02:27:43.592Z,71.42
2018-07-09T02:30:12.570Z,70.82
2018-07-09T02:32:41.478Z,72.30
2018-07-09T02:35:10.363Z,70.75
2018-07-09T02:37:39.253Z,71.06
2018-07-09T02:40:08.197Z,71.54
2018-07-09T02:42:37.113Z,71.52
2018-07-09T02:45:06.261Z,72.14
2018-07-09T02:47:35.183Z,71.17
2018-07-09T02:50:04.136Z,71.96
2018-07-09T02:52:33.185Z,71.96
2018-07-09T02:55:02.101Z,72.59
2018-07-09T02:57:31.037Z,72.73
2018-07-09T02:59:59.992Z,71.51
2018-07-09T03:02:28.897Z,71.11
2018-07-09T03:04:57.803Z,71.13
2018-07-09T03:07:26.718Z,71.19
2018-07-09T03:09:55.642Z,70.98
2018-07-09T03:12:24.550Z,71.04
2018-07-09T03:14:53.457Z,70.39
2018-07-09T03:17:22.382Z,70.50
2018-07-09T03:19:51.305Z,71.03
2018-07-09T03:22:20.210Z,70.77
2018-07-09T03:24:49.101Z,71.69
2018-07-09T03:27:18.050Z,72.04
2018-07-09T03:29:48.015Z,71.88
2018-07-09T03:32:16.925Z,71.83
2018-07-09T03:34:45.912Z,72.87
2018-07-09T03:37:14.894Z,72.38
2018-07-09T03:39:43.785Z,72.25
2018-07-09T03:42:12.698Z,71.07
2018-07-09T03:44:41.679Z,72.33
2018-07-09T03:47:10.594Z,72.51
2018-07-09T03:49:39.496Z,72.55
2018-07-09T03:52:08.430Z,72.11
2018-07-09T03:54:37.377Z,72.23
2018-07-09T03:57:06.372Z,73.34
2018-07-09T03:59:35.353Z,72.52
2018-07-09T04:02:04.295Z,72.76
2018-07-09T04:04:33.230Z,72.75
2018-07-09T04:07:02.183Z,73.05
2018-07-09T04:09:31.128Z,73.00
2018-07-09T04:12:00.062Z,71.84
2018-07-09T04:14:29.060Z,71.72
2018-07-09T04:16:57.960Z,72.75
2018-07-09T04:19:26.864Z,72.17
2018-07-09T04:21:56.145Z,71.34
2018-07-09T04:24:25.045Z,70.88
2018-07-09T04:26:54.241Z,71.32
2018-07-09T04:29:23.182Z,72.49
2018-07-09T04:31:52.158Z,71.12
2018-07-09T04:34:21.044Z,71.02
2018-07-09T04:36:49.995Z,70.44
2018-07-09T04:39:18.912Z,71.36
2018-07-09T04:41:47.803Z,69.31
2018-07-09T04:44:16.787Z,70.46
2018-07-09T04:46:45.744Z,70.48
2018-07-09T04:49:14.652Z,70.38
2018-07-09T04:51:43.564Z,70.30
2018-07-09T04:54:13.226Z,69.95
2018-07-09T04:56:42.173Z,70.37
2018-07-09T04:59:11.146Z,68.62
2018-07-09T05:01:40.214Z,68.69
2018-07-09T05:04:09.137Z,68.87
2018-07-09T05:06:38.053Z,69.50
2018-07-09T05:09:07.276Z,69.23
2018-07-09T05:11:36.219Z,69.03
2018-07-09T05:14:05.157Z,68.66
2018-07-09T05:16:34.051Z,69.60
2018-07-09T05:19:02.989Z,69.32
2018-07-09T05:21:31.882Z,68.40
2018-07-09T05:24:00.800Z,68.99
2018-07-09T05:26:29.730Z,67.93
2018-07-09T05:28:58.652Z,67.82
2018-07-09T05:31:27.735Z,67.23
2018-07-09T05:33:56.656Z,67.82
2018-07-09T05:36:25.581Z,65.79
2018-07-09T05:38:54.518Z,66.90
2018-07-09T05:41:23.460Z,66.25
2018-07-09T05:43:52.413Z,65.80
2018-07-09T05:46:21.457Z,66.42
2018-07-09T05:48:50.472Z,65.98
2018-07-09T05:51:19.425Z,66.69
2018-07-09T05:53:48.354Z,65.68
2018-07-09T05:56:17.273Z,64.78
2018-07-09T05:58:46.203Z,63.93
2018-07-09T06:01:15.156Z,63.61
2018-07-09T06:03:44.074Z,62.79
2018-07-09T06:06:13.044Z,62.00
2018-07-09T06:08:41.944Z,60.68
2018-07-09T06:11:10.926Z,61.04
2018-07-09T06:13:39.832Z,60.45
2018-07-09T06:16:08.687Z,57.65
2018-07-09T06:18:37.598Z,54.82
2018-07-09T06:21:07.370Z,55.40
2018-07-09T06:23:36.307Z,53.84
2018-07-09T06:26:05.406Z,53.64
2018-07-09T06:28:34.333Z,55.16
2018-07-09T06:31:03.387Z,51.51
2018-07-09T06:33:32.332Z,53.50
2018-07-09T06:36:01.269Z,54.18
2018-07-09T06:38:30.161Z,49.57
2018-07-09T06:40:59.104Z,51.26
2018-07-09T06:43:28.069Z,50.11
2018-07-09T06:45:56.989Z,51.63
2018-07-09T06:48:25.930Z,49.77
2018-07-09T06:50:54.904Z,49.08
2018-07-09T06:53:23.787Z,51.56
2018-07-09T06:55:52.720Z,54.45
2018-07-09T06:58:21.702Z,55.26
2018-07-09T07:00:50.704Z,54.15
2018-07-09T07:03:19.675Z,56.52
2018-07-09T07:05:48.740Z,57.25
2018-07-09T07:08:17.606Z,56.64
2018-07-09T07:10:46.541Z,56.14
2018-07-09T07:13:15.556Z,57.42
2018-07-09T07:15:44.515Z,57.37
2018-07-09T07:18:13.441Z,55.50
2018-07-09T07:20:42.399Z,53.74
2018-07-09T07:23:11.326Z,52.51
2018-07-09T07:25:40.253Z,52.58
2018-07-09T07:28:09.177Z,52.67
2018-07-09T07:30:39.151Z,53.45
2018-07-09T07:33:08.069Z,51.61
2018-07-09T07:35:36.985Z,51.31
2018-07-09T07:38:06.040Z,50.00
2018-07-09T07:40:34.975Z,48.96
2018-07-09T07:43:03.960Z,46.71
2018-07-09T07:45:32.897Z,46.68
2018-07-09T07:48:01.849Z,46.75
2018-07-09T07:50:31.007Z,45.57
2018-07-09T07:52:59.777Z,47.13
2018-07-09T07:55:28.745Z,44.66
2018-07-09T07:57:57.676Z,44.98
2018-07-09T08:00:26.639Z,44.65
2018-07-09T08:02:55.576Z,42.97
2018-07-09T08:05:28.352Z,43.21
2018-07-09T08:07:57.297Z,43.36
2018-07-09T08:10:26.189Z,42.30
2018-07-09T08:13:27.169Z,44.32
2018-07-09T08:15:24.159Z,43.99
2018-07-09T08:17:53.154Z,43.34
2018-07-09T08:20:22.080Z,42.37
2018-07-09T08:22:50.991Z,43.08
2018-07-09T08:25:19.930Z,42.31
2018-07-09T08:27:48.875Z,44.17
2018-07-09T08:30:17.796Z,40.68
2018-07-09T08:32:46.718Z,39.52
2018-07-09T08:35:15.645Z,40.49
2018-07-09T08:37:44.569Z,40.36
2018-07-09T08:40:13.918Z,41.36
2018-07-09T08:42:42.840Z,43.75
2018-07-09T08:45:11.893Z,40.48
2018-07-09T08:47:40.792Z,40.45
2018-07-09T08:50:09.679Z,41.14
2018-07-09T08:52:38.596Z,39.07
2018-07-09T08:55:07.564Z,38.89
2018-07-09T08:57:36.521Z,40.32
2018-07-09T09:00:05.431Z,36.89
2018-07-09T09:02:34.400Z,37.54
2018-07-09T09:05:03.323Z,37.64
2018-07-09T09:07:32.260Z,38.55
2018-07-09T09:10:01.224Z,40.42
2018-07-09T09:12:30.114Z,39.71
2018-07-09T09:14:59.074Z,36.99
2018-07-09T09:17:28.075Z,38.15
2018-07-09T09:19:57.019Z,37.60
2018-07-09T09:22:25.928Z,40.65
2018-07-09T09:24:54.865Z,40.27
2018-07-09T09:27:23.780Z,39.26
2018-07-09T09:29:52.705Z,38.47
2018-07-09T09:32:21.696Z,36.59
2018-07-09T09:34:50.619Z,36.13
2018-07-09T09:37:19.580Z,36.55
2018-07-09T09:39:48.452Z,36.42
2018-07-09T09:42:17.392Z,37.86
2018-07-09T09:44:46.308Z,37.62
2018-07-09T09:47:15.223Z,38.91
2018-07-09T09:49:44.145Z,37.44
2018-07-09T09:52:13.061Z,37.66
2018-07-09T09:54:41.972Z,37.84
2018-07-09T09:57:10.917Z,38.27
2018-07-09T09:59:39.858Z,36.05
2018-07-09T10:02:08.770Z,35.53
2018-07-09T10:04:37.716Z,36.74
2018-07-09T10:07:06.625Z,35.87
2018-07-09T10:09:35.544Z,38.59
2018-07-09T10:12:04.428Z,35.81
2018-07-09T10:14:33.357Z,33.85
2018-07-09T10:17:02.266Z,34.22
2018-07-09T10:19:31.166Z,33.54
2018-07-09T10:22:00.161Z,32.22
2018-07-09T10:24:29.086Z,33.63
2018-07-09T10:26:57.990Z,35.14
2018-07-09T10:29:26.933Z,35.90
2018-07-09T10:31:55.868Z,37.28
2018-07-09T10:34:24.811Z,38.78
2018-07-09T10:36:53.706Z,40.68
2018-07-09T10:39:22.835Z,38.11
2018-07-09T10:41:51.817Z,37.92
2018-07-09T10:44:20.739Z,36.64
2018-07-09T10:46:49.685Z,37.35
2018-07-09T10:49:18.749Z,37.37
2018-07-09T10:51:47.677Z,31.24
2018-07-09T10:54:16.587Z,33.31
2018-07-09T10:56:45.480Z,34.49
2018-07-09T10:59:14.415Z,33.62
2018-07-09T11:01:43.408Z,34.61
2018-07-09T11:04:12.321Z,34.13
2018-07-09T11:06:41.220Z,34.44
2018-07-09T11:09:10.129Z,31.45
2018-07-09T11:11:39.074Z,33.98
2018-07-09T11:14:07.972Z,34.17
2018-07-09T11:16:36.897Z,35.88
2018-07-09T11:19:05.876Z,34.45
2018-07-09T11:21:34.809Z,33.33
2018-07-09T11:24:03.694Z,34.20
2018-07-09T11:26:32.632Z,35.91
2018-07-09T11:29:01.649Z,33.49
2018-07-09T11:31:30.812Z,33.14
2018-07-09T11:33:59.714Z,31.63
2018-07-09T11:36:28.685Z,31.66
2018-07-09T11:38:57.915Z,29.85
2018-07-09T11:41:27.052Z,32.64
2018-07-09T11:43:55.957Z,33.65
2018-07-09T11:46:24.886Z,31.27
2018-07-09T11:48:53.817Z,32.03
2018-07-09T11:51:22.761Z,29.73
2018-07-09T11:53:51.681Z,29.32
2018-07-09T11:56:20.665Z,31.94
2018-07-09T11:58:49.695Z,33.79
2018-07-09T12:01:18.686Z,34.13
2018-07-09T12:03:47.888Z,32.98
2018-07-09T12:06:16.821Z,36.58
2018-07-09T12:08:45.760Z,33.78
2018-07-09T12:11:14.833Z,32.72
2018-07-09T12:13:43.770Z,33.25
2018-07-09T12:16:12.676Z,33.54
2018-07-09T12:18:41.584Z,34.94
2018-07-09T12:21:10.480Z,34.76
2018-07-09T12:23:39.383Z,34.20
2018-07-09T12:26:08.281Z,35.69
2018-07-09T12:28:37.245Z,32.25
2018-07-09T12:31:06.228Z,31.05
2018-07-09T12:33:35.128Z,31.51
2018-07-09T12:36:04.967Z,32.33
2018-07-09T12:38:33.859Z,33.09
2018-07-09T12:41:02.781Z,31.70
2018-07-09T12:43:31.680Z,29.78
2018-07-09T12:46:00.605Z,28.56
2018-07-09T12:48:29.555Z,30.89
2018-07-09T12:50:58.512Z,29.01
2018-07-09T12:53:27.439Z,29.94
2018-07-09T12:55:56.499Z,29.14
2018-07-09T12:58:25.613Z,30.32
2018-07-09T13:00:54.636Z,28.23
2018-07-09T13:03:23.967Z,28.03
2018-07-09T13:05:52.895Z,30.23
2018-07-09T13:08:21.810Z,29.63
2018-07-09T13:10:50.781Z,31.24
2018-07-09T13:13:19.702Z,30.44
2018-07-09T13:15:48.624Z,28.12
2018-07-09T13:18:17.526Z,29.82
2018-07-09T13:20:46.425Z,30.54
2018-07-09T13:23:15.355Z,29.54
2018-07-09T13:25:44.298Z,28.61
2018-07-09T13:28:13.451Z,30.01
2018-07-09T13:30:42.403Z,30.26
2018-07-09T13:33:11.321Z,30.78
2018-07-09T13:35:40.212Z,29.31
2018-07-09T13:38:09.213Z,29.27
2018-07-09T13:40:38.107Z,29.20
2018-07-09T13:43:07.065Z,28.91
2018-07-09T13:45:36.044Z,28.72
2018-07-09T13:48:10.611Z,30.41
2018-07-09T13:50:39.537Z,29.20
2018-07-09T13:53:08.472Z,28.99
2018-07-09T13:55:37.383Z,28.94
2018-07-09T13:58:06.289Z,28.61
2018-07-09T14:00:35.231Z,28.83
2018-07-09T14:03:04.138Z,28.71
2018-07-09T14:05:33.075Z,28.54
2018-07-09T14:08:02.038Z,28.12
2018-07-09T14:10:31.019Z,26.88
2018-07-09T14:12:59.984Z,27.60
2018-07-09T14:15:28.955Z,27.23
2018-07-09T14:17:57.913Z,27.99
2018-07-09T14:20:29.577Z,30.15
2018-07-09T14:22:59.003Z,30.29
2018-07-09T14:25:27.913Z,28.91
2018-07-09T14:27:56.850Z,28.48
2018-07-09T14:30:25.845Z,29.28
2018-07-09T14:32:54.897Z,27.73
2018-07-09T14:35:23.822Z,28.05
2018-07-09T14:37:53.029Z,27.56
2018-07-09T14:40:22.090Z,27.54
2018-07-09T14:42:51.057Z,27.39
2018-07-09T14:45:20.012Z,26.51
2018-07-09T14:47:49.006Z,27.33
2018-07-09T14:50:18.020Z,26.46
2018-07-09T14:52:47.007Z,24.40
2018-07-09T14:55:15.966Z,23.43
2018-07-09T14:57:44.940Z,25.56
2018-07-09T15:00:13.893Z,24.44
2018-07-09T15:02:42.850Z,24.68
2018-07-09T15:05:11.833Z,25.19
2018-07-09T15:07:40.745Z,24.97
2018-07-09T15:10:09.709Z,24.69
2018-07-09T15:12:38.700Z,25.26
2018-07-09T15:15:07.688Z,25.58
2018-07-09T15:17:36.590Z,24.87
2018-07-09T15:20:05.577Z,24.87
2018-07-09T15:22:34.571Z,24.23
2018-07-09T15:25:03.530Z,23.83
2018-07-09T15:27:32.460Z,21.71
2018-07-09T15:30:01.495Z,22.08
2018-07-09T15:32:31.473Z,22.71
2018-07-09T15:35:00.520Z,22.62
2018-07-09T15:37:29.821Z,22.15
2018-07-09T15:39:58.751Z,22.30
2018-07-09T15:42:27.747Z,23.80
2018-07-09T15:44:56.605Z,24.99
2018-07-09T15:47:25.540Z,25.95
2018-07-09T15:49:54.431Z,26.06
2018-07-09T15:52:23.406Z,23.41
2018-07-09T15:54:52.298Z,24.93
2018-07-09T15:57:21.260Z,25.88
2018-07-09T15:59:50.216Z,25.69
2018-07-09T16:02:19.158Z,27.91
2018-07-09T16:04:48.075Z,27.21
2018-07-09T16:07:16.981Z,27.68
2018-07-09T16:09:45.895Z,29.82
2018-07-09T16:12:14.899Z,28.93
2018-07-09T16:14:43.813Z,29.37
2018-07-09T16:17:12.749Z,29.23
2018-07-09T16:19:41.652Z,31.84
2018-07-09T16:22:10.690Z,31.15
2018-07-09T16:24:39.664Z,31.16
2018-07-09T16:27:08.673Z,33.34
2018-07-09T16:29:37.641Z,33.27
2018-07-09T16:32:06.553Z,34.02
2018-07-09T16:34:35.474Z,34.43
2018-07-09T16:37:04.373Z,34.71
2018-07-09T16:39:33.315Z,34.71
2018-07-09T16:42:02.149Z,34.71
2018-07-09T16:44:31.088Z,34.57
2018-07-09T16:46:59.989Z,34.96
2018-07-09T16:49:28.876Z,35.29
2018-07-09T16:51:57.783Z,35.82
2018-07-09T16:54:26.697Z,35.52
2018-07-09T16:56:55.601Z,36.38
2018-07-09T16:59:24.500Z,35.36
2018-07-09T17:01:53.405Z,36.52
2018-07-09T17:04:22.344Z,37.50
2018-07-09T17:06:51.288Z,36.85
2018-07-09T17:09:20.203Z,37.55
2018-07-09T17:11:49.105Z,38.97
2018-07-09T17:14:18.131Z,39.76
2018-07-09T17:16:47.265Z,39.67
2018-07-09T17:19:16.205Z,39.29
2018-07-09T17:21:45.146Z,41.34
2018-07-09T17:24:14.076Z,39.80
2018-07-09T17:26:43.016Z,40.07
2018-07-09T17:29:11.876Z,39.88
2018-07-09T17:31:40.800Z,40.87
2018-07-09T17:34:09.708Z,40.29
2018-07-09T17:36:38.620Z,40.69
2018-07-09T17:39:07.643Z,41.29
2018-07-09T17:41:36.663Z,40.75
2018-07-09T17:44:05.716Z,40.65
2018-07-09T17:46:34.582Z,41.55
2018-07-09T17:49:03.483Z,40.87
2018-07-09T17:51:32.382Z,42.02
2018-07-09T17:54:01.314Z,42.22
2018-07-09T17:56:30.265Z,42.00
2018-07-09T17:58:59.201Z,41.85
2018-07-09T18:01:28.163Z,42.29
2018-07-09T18:03:57.243Z,42.10
2018-07-09T18:06:26.170Z,43.12
2018-07-09T18:08:55.065Z,43.66
2018-07-09T18:11:23.994Z,45.36
2018-07-09T18:13:52.946Z,44.36
2018-07-09T18:16:21.857Z,45.59
2018-07-09T18:18:50.753Z,44.96
2018-07-09T18:21:19.662Z,45.96
2018-07-09T18:23:48.596Z,47.05
2018-07-09T18:26:17.530Z,46.58
2018-07-09T18:28:46.453Z,45.56
2018-07-09T18:31:15.390Z,46.25
2018-07-09T18:33:44.280Z,48.53
2018-07-09T18:36:13.175Z,47.52
2018-07-09T18:38:42.671Z,46.71
2018-07-09T18:41:11.477Z,47.74
2018-07-09T18:43:40.363Z,48.17
2018-07-09T18:46:09.268Z,48.46
2018-07-09T18:48:38.229Z,50.19
2018-07-09T18:51:07.064Z,50.79
2018-07-09T18:53:35.952Z,50.16
2018-07-09T18:56:05.052Z,49.20
2018-07-09T18:58:34.141Z,49.75
2018-07-09T19:01:02.846Z,49.15
2018-07-09T19:03:37.583Z,49.26
2018-07-09T19:06:46.080Z,50.12
2018-07-09T19:11:42.763Z,50.83
2018-07-09T19:14:12.363Z,50.40
2018-07-09T19:16:52.986Z,51.56
2018-07-09T19:19:34.281Z,51.46
2018-07-09T19:22:03.790Z,51.93
2018-07-09T19:24:32.253Z,51.26
2018-07-09T19:27:00.945Z,52.32
2018-07-09T19:29:28.942Z,52.32
2018-07-09T19:31:56.899Z,52.64
2018-07-09T19:34:24.849Z,53.09
2018-07-09T19:36:52.901Z,52.93
2018-07-09T19:39:20.748Z,53.81
2018-07-09T19:41:48.809Z,53.49
2018-07-09T19:44:16.690Z,52.92
2018-07-09T19:46:44.642Z,53.81
2018-07-09T19:49:12.693Z,53.96
2018-07-09T19:51:40.641Z,53.65
2018-07-09T19:54:08.612Z,53.97
2018-07-09T19:56:36.621Z,54.13
2018-07-09T19:59:04.645Z,55.12
2018-07-09T20:01:32.628Z,54.82
2018-07-09T20:04:00.711Z,54.84
2018-07-09T20:06:28.650Z,54.98
2018-07-09T20:09:02.113Z,54.33
2018-07-09T20:11:35.534Z,55.94
2018-07-09T20:14:08.952Z,56.31
2018-07-09T20:16:42.358Z,55.41
2018-07-09T20:19:10.717Z,57.11
2018-07-09T20:21:38.678Z,55.67
2018-07-09T20:24:06.629Z,57.18
2018-07-09T20:26:34.620Z,56.91
2018-07-09T20:29:02.682Z,57.32
2018-07-09T20:31:30.635Z,57.82
2018-07-09T20:33:58.622Z,57.25
2018-07-09T20:36:26.565Z,58.65
2018-07-09T20:38:54.540Z,58.26
2018-07-09T20:41:23.413Z,57.25
2018-07-09T20:43:51.386Z,59.02
2018-07-09T20:46:19.453Z,58.87
2018-07-09T20:48:47.443Z,59.08
2018-07-09T20:51:15.489Z,58.97
2018-07-09T20:53:43.442Z,58.61
2018-07-09T20:56:11.391Z,58.73
2018-07-09T20:58:39.572Z,59.73
2018-07-09T21:01:07.547Z,59.48
2018-07-09T21:03:35.513Z,59.89
2018-07-09T21:06:03.473Z,60.43
2018-07-09T21:08:31.443Z,61.04
2018-07-09T21:10:59.406Z,60.39
2018-07-09T21:13:30.588Z,59.99
2018-07-09T21:15:58.713Z,60.75
2018-07-09T21:18:26.816Z,61.39
2018-07-09T21:20:54.812Z,61.29
2018-07-09T21:23:22.776Z,62.44
2018-07-09T21:25:50.743Z,61.67
2018-07-09T21:28:18.762Z,62.08
2018-07-09T21:30:46.739Z,61.55
2018-07-09T21:33:14.695Z,61.45
2018-07-09T21:35:42.709Z,62.33
2018-07-09T21:38:10.655Z,62.62
2018-07-09T21:40:38.629Z,61.71
2018-07-09T21:43:06.683Z,62.40
2018-07-09T21:45:34.643Z,62.07
2018-07-09T21:48:10.564Z,61.85
2018-07-09T21:50:30.592Z,62.76
2018-07-09T21:55:32.760Z,63.06
2018-07-09T21:58:00.719Z,63.30
2018-07-09T22:00:28.943Z,63.29
2018-07-09T22:02:56.936Z,63.36
2018-07-09T22:05:25.073Z,63.87
2018-07-09T22:07:53.032Z,63.86
2018-07-09T22:10:20.987Z,63.26
2018-07-09T22:12:48.940Z,64.00
2018-07-09T22:15:16.910Z,63.44
2018-07-09T22:17:44.855Z,62.65
2018-07-09T22:20:12.928Z,62.84
2018-07-09T22:22:40.889Z,63.95
2018-07-09T22:25:08.868Z,63.27
2018-07-09T22:27:36.818Z,63.75
2018-07-09T22:30:04.848Z,63.57
2018-07-09T22:32:33.744Z,64.09
2018-07-09T22:35:02.652Z,63.24
2018-07-09T22:37:31.732Z,63.78
2018-07-09T22:40:00.651Z,63.44
2018-07-09T22:42:29.512Z,64.12
2018-07-09T22:44:58.479Z,63.25
2018-07-09T22:47:27.395Z,63.87
2018-07-09T22:49:56.299Z,63.18
2018-07-09T22:52:25.251Z,62.59
2018-07-09T22:55:05.539Z,62.88
2018-07-09T22:57:34.412Z,63.54
2018-07-09T23:00:03.336Z,62.60
2018-07-09T23:02:32.249Z,63.55
2018-07-09T23:05:01.139Z,62.15
2018-07-09T23:07:30.054Z,62.20
2018-07-09T23:10:13.152Z,63.83
2018-07-09T23:16:37.435Z,62.02
2018-07-09T23:19:21.168Z,62.26
2018-07-09T23:22:01.578Z,62.68
2018-07-09T23:24:29.562Z,62.03
2018-07-09T23:26:57.773Z,61.65
2018-07-09T23:29:25.770Z,62.65
2018-07-09T23:31:53.738Z,62.47
2018-07-09T23:34:21.830Z,63.30
2018-07-09T23:36:49.807Z,61.67
2018-07-09T23:39:17.749Z,62.50
2018-07-09T23:41:45.730Z,62.00
2018-07-09T23:44:13.729Z,61.86
2018-07-09T23:46:41.721Z,60.60
2018-07-09T23:49:09.688Z,62.23
2018-07-09T23:51:37.911Z,62.55
2018-07-09T23:54:05.890Z,62.57
2018-07-09T23:58:49.512Z,63.43
